Surface Preassure
0:00 UTC
12:00 UTC (Click for larger versions)
Andrewsfield Outlook

Current time:


  10:31:34am (GMT)      10:31:34am (UTC)


Headline: Rain on Monday, clearing south later. Some sunshine on Tuesday.

Today: Becoming cloudy after a dry and bright start, with outbreaks of light rain pushing south during the afternoon. Hill fog developing over high ground. Cooler than Sunday. Maximum Temperature 16C.

Tonight: Any cloud will slowly clear south during the evening, giving way to a dry and largely clear night. Feeling chilly though, with temperatures falling into single digit figures. Minimum Temperature 7C.

Tuesday: A fine morning with plenty of sunshine. Slightly cloudier in the afternoon, but dry and feeling warm in any spells of sunshine. Cooler by the sea. Maximum Temperature 20C.

Outlook for Wednesday to Friday: Generally cloudy and cool during this period, with outbreaks of rain at times, particularly over high ground. Perhaps drier on Thursday, with bright or sunny spells in the east.

Nearby METAR/TAF

Stansted (EGSS)


Current conditions: VFR

METAR: EGSS 211020Z AUTO 03011KT 9999 -RA NCD 13/11 Q1013

TAF: TAF EGSS 210506Z 2106/2212 03007KT 9999 SCT017 TEMPO 2106/2124 SCT006 BKN011 TEMPO 2107/2124 7000 -RA PROB40 TEMPO 2107/2124 4000 RA

Southend (EGMC)


Current conditions: VFR

METAR: EGMC 210950Z 03008KT 350V060 9999 -RA FEW025 13/11 Q1012

TAF: TAF EGMC 210755Z 2109/2118 03009KT 9999 SCT018 TEMPO 2109/2118 6000 RA BKN010

RAF Wattisham (EGUW)


Current conditions: MVFR

METAR: EGUW 210950Z 04013KT 9999 -RA BKN022 BKN070 13/09 Q1012 TEMPO SCT026 RMK WHT TEMPO BLU

TAF: TAF EGUW 210732Z 2109/2118 05015KT 9999 BKN026 TEMPO 2109/2118 BKN022